Time;durP1;ratioP1;P1;durP2;ratioP2;P2;SDS_P1;SDS_P2;PMS_P1;PMS_P2;Temp;Humidity;BMP_temperature;BMP_pressure;BME280_temperature;BME280_humidity;BME280_pressure;Samples;Min_cycle;Max_cycle;Signal;HPM_P1;HPM_P2
2024/04/08 00:00:04;;;;;;;;;;;21.40;47.90;;;;;;1560432;75;688;-67
2024/04/08 00:02:06;;;;;;;;;;;21.40;47.90;;;;;;1558696;75;685;-66
2024/04/08 00:04:08;;;;;;;;;;;21.50;48.10;;;;;;1566979;74;703;-67
2024/04/08 00:06:10;;;;;;;;;;;21.40;47.90;;;;;;1557146;74;1536;-69
2024/04/08 00:08:12;;;;;;;;;;;21.50;48.10;;;;;;1549959;75;1942;-66
2024/04/08 00:10:14;;;;;;;;;;;21.50;48.10;;;;;;1551865;75;676;-68
2024/04/08 00:12:15;;;;;;;;;;;21.40;48.00;;;;;;1561339;75;787;-68
2024/04/08 00:14:18;;;;;;;;;;;21.40;48.00;;;;;;1559251;75;670;-66
2024/04/08 00:16:20;;;;;;;;;;;21.40;48.10;;;;;;1567228;75;817;-71
2024/04/08 00:18:21;;;;;;;;;;;21.40;48.10;;;;;;1563126;75;1154;-67
2024/04/08 00:20:23;;;;;;;;;;;21.40;48.10;;;;;;1567077;75;1595;-69
2024/04/08 00:22:25;;;;;;;;;;;21.40;48.00;;;;;;1557682;75;715;-69
2024/04/08 00:24:27;;;;;;;;;;;21.40;48.10;;;;;;1564397;76;674;-66
2024/04/08 00:26:29;;;;;;;;;;;21.40;48.20;;;;;;1559396;75;762;-67
2024/04/08 00:28:31;;;;;;;;;;;21.40;48.20;;;;;;1564733;75;1940;-68
2024/04/08 00:30:34;;;;;;;;;;;21.40;48.20;;;;;;1565995;75;670;-68
2024/04/08 00:32:36;;;;;;;;;;;21.40;48.10;;;;;;1557171;75;695;-66
2024/04/08 00:34:38;;;;;;;;;;;21.50;48.40;;;;;;1567323;75;1562;-66
2024/04/08 00:36:41;;;;;;;;;;;21.40;48.20;;;;;;1564953;75;810;-66
2024/04/08 00:38:43;;;;;;;;;;;21.40;48.20;;;;;;1566012;75;1132;-71
2024/04/08 00:40:45;;;;;;;;;;;21.50;48.30;;;;;;1560645;74;784;-68
2024/04/08 00:42:52;;;;;;;;;;;21.40;48.20;;;;;;1561908;75;665;-68
2024/04/08 00:44:51;;;;;;;;;;;21.40;48.30;;;;;;1566387;75;1578;-70
2024/04/08 00:46:53;;;;;;;;;;;21.40;48.30;;;;;;1567563;75;708;-68
2024/04/08 00:48:55;;;;;;;;;;;21.40;48.30;;;;;;1563775;75;1940;-69
2024/04/08 00:50:57;;;;;;;;;;;21.40;48.30;;;;;;1561828;75;810;-69
2024/04/08 00:52:59;;;;;;;;;;;21.40;48.30;;;;;;1561882;75;648;-69
2024/04/08 00:55:00;;;;;;;;;;;21.40;48.40;;;;;;1567187;75;645;-71
2024/04/08 00:57:03;;;;;;;;;;;21.40;48.30;;;;;;1566191;76;747;-67
2024/04/08 00:59:08;;;;;;;;;;;21.40;48.40;;;;;;1564998;75;1173;-69
2024/04/08 01:01:15;;;;;;;;;;;21.40;48.30;;;;;;1565927;75;779;-68
2024/04/08 01:03:14;;;;;;;;;;;21.40;48.40;;;;;;1562750;75;1607;-67
2024/04/08 01:05:16;;;;;;;;;;;21.40;48.40;;;;;;1561741;75;610;-68
2024/04/08 01:07:17;;;;;;;;;;;21.50;48.50;;;;;;1565010;75;1105;-69
2024/04/08 01:09:19;;;;;;;;;;;21.40;48.40;;;;;;1566532;75;1950;-70
2024/04/08 01:11:21;;;;;;;;;;;21.40;48.40;;;;;;1565835;75;728;-68
2024/04/08 01:13:23;;;;;;;;;;;21.40;48.40;;;;;;1566366;75;700;-67
2024/04/08 01:15:25;;;;;;;;;;;21.40;48.40;;;;;;1565739;75;733;-67
2024/04/08 01:17:27;;;;;;;;;;;21.40;48.40;;;;;;1554417;75;1571;-68
2024/04/08 01:19:29;;;;;;;;;;;21.40;48.40;;;;;;1566080;75;717;-66
2024/04/08 01:21:31;;;;;;;;;;;21.40;48.40;;;;;;1565874;75;681;-68
2024/04/08 01:23:41;;;;;;;;;;;21.40;48.40;;;;;;1563765;75;713;-68
2024/04/08 01:25:43;;;;;;;;;;;21.40;48.40;;;;;;1562436;75;797;-71
2024/04/08 01:27:44;;;;;;;;;;;21.50;48.60;;;;;;1553987;75;1172;-68
2024/04/08 01:29:46;;;;;;;;;;;21.40;48.40;;;;;;1565408;75;1940;-66
2024/04/08 01:31:48;;;;;;;;;;;21.40;48.50;;;;;;1564265;75;1561;-67
2024/04/08 01:33:50;;;;;;;;;;;21.40;48.50;;;;;;1551985;75;683;-68
2024/04/08 01:35:53;;;;;;;;;;;21.50;48.60;;;;;;1561953;75;712;-69
2024/04/08 01:37:55;;;;;;;;;;;21.40;48.50;;;;;;1560684;74;1116;-67
2024/04/08 01:39:57;;;;;;;;;;;21.40;48.50;;;;;;1564626;75;632;-68
2024/04/08 01:41:59;;;;;;;;;;;21.50;48.70;;;;;;1562258;75;715;-67
2024/04/08 01:44:01;;;;;;;;;;;21.50;48.70;;;;;;1562436;75;724;-68
2024/04/08 01:46:03;;;;;;;;;;;21.40;48.60;;;;;;1563351;75;1685;-71
2024/04/08 01:48:05;;;;;;;;;;;21.50;48.70;;;;;;1561375;75;1230;-70
2024/04/08 01:50:07;;;;;;;;;;;21.50;48.70;;;;;;1562486;75;1926;-68
2024/04/08 01:52:09;;;;;;;;;;;21.50;48.70;;;;;;1566520;75;680;-70
2024/04/08 01:54:13;;;;;;;;;;;21.50;48.70;;;;;;1558918;75;697;-71
2024/04/08 01:56:15;;;;;;;;;;;21.50;48.80;;;;;;1561315;75;898;-69
2024/04/08 01:58:17;;;;;;;;;;;21.40;48.60;;;;;;1565373;75;1121;-70
2024/04/08 02:00:19;;;;;;;;;;;21.40;48.60;;;;;;1555483;75;1638;-73
2024/04/08 02:02:21;;;;;;;;;;;21.50;48.80;;;;;;1562126;76;734;-72
2024/04/08 02:04:23;;;;;;;;;;;21.50;48.80;;;;;;1566514;75;773;-73
2024/04/08 02:06:25;;;;;;;;;;;21.50;48.80;;;;;;1568152;75;696;-68
2024/04/08 02:08:27;;;;;;;;;;;21.50;48.80;;;;;;1566756;75;1139;-67
2024/04/08 02:10:29;;;;;;;;;;;21.50;48.90;;;;;;1565836;75;1934;-69
2024/04/08 02:12:31;;;;;;;;;;;21.50;48.80;;;;;;1560632;75;1529;-67
2024/04/08 02:14:33;;;;;;;;;;;21.40;48.70;;;;;;1554444;75;804;-70
2024/04/08 02:16:34;;;;;;;;;;;21.50;48.90;;;;;;1552491;75;593;-72
2024/04/08 02:18:36;;;;;;;;;;;21.50;48.90;;;;;;1558244;75;1130;-72
2024/04/08 02:20:38;;;;;;;;;;;21.50;48.90;;;;;;1558428;75;793;-69
2024/04/08 02:22:40;;;;;;;;;;;21.40;48.70;;;;;;1562243;75;734;-67
2024/04/08 02:24:43;;;;;;;;;;;21.40;48.80;;;;;;1552555;75;823;-67
2024/04/08 02:26:45;;;;;;;;;;;21.40;48.80;;;;;;1561023;75;1553;-68
2024/04/08 02:28:47;;;;;;;;;;;21.40;48.80;;;;;;1559487;75;1121;-67
2024/04/08 02:30:49;;;;;;;;;;;21.40;48.70;;;;;;1560018;75;1916;-68
2024/04/08 02:32:51;;;;;;;;;;;21.40;48.80;;;;;;1566710;75;687;-71
2024/04/08 02:34:53;;;;;;;;;;;21.50;49.00;;;;;;1559295;74;803;-71
2024/04/08 02:36:55;;;;;;;;;;;21.40;48.80;;;;;;1567224;75;800;-69
2024/04/08 02:38:57;;;;;;;;;;;21.40;48.80;;;;;;1565881;75;1126;-69
2024/04/08 02:40:59;;;;;;;;;;;21.40;48.90;;;;;;1557578;75;1550;-66
2024/04/08 02:43:01;;;;;;;;;;;21.40;48.90;;;;;;1556473;75;817;-70
2024/04/08 02:45:03;;;;;;;;;;;21.50;49.00;;;;;;1562552;75;751;-73
2024/04/08 02:47:05;;;;;;;;;;;21.50;49.10;;;;;;1562325;75;676;-68
2024/04/08 02:49:07;;;;;;;;;;;21.50;49.10;;;;;;1557868;75;1940;-73
2024/04/08 02:51:09;;;;;;;;;;;21.40;48.90;;;;;;1561008;75;688;-69
2024/04/08 02:53:11;;;;;;;;;;;21.40;48.90;;;;;;1567078;75;658;-71
2024/04/08 02:55:13;;;;;;;;;;;21.40;49.00;;;;;;1563926;75;1316;-71
2024/04/08 02:57:15;;;;;;;;;;;21.40;49.00;;;;;;1563323;75;1168;-71
2024/04/08 02:59:17;;;;;;;;;;;21.40;49.00;;;;;;1558628;75;646;-69
2024/04/08 03:01:19;;;;;;;;;;;21.50;49.20;;;;;;1566109;76;883;-68
2024/04/08 03:03:21;;;;;;;;;;;21.50;49.10;;;;;;1559372;75;693;-67
2024/04/08 03:05:23;;;;;;;;;;;21.50;49.20;;;;;;1565671;75;697;-67
2024/04/08 03:07:25;;;;;;;;;;;21.40;49.10;;;;;;1557088;75;1145;-68
2024/04/08 03:09:27;;;;;;;;;;;21.40;49.10;;;;;;1566415;75;1946;-71
2024/04/08 03:11:28;;;;;;;;;;;21.50;49.20;;;;;;1562403;76;690;-67
2024/04/08 03:13:31;;;;;;;;;;;21.40;49.00;;;;;;1563844;75;789;-71
2024/04/08 03:15:32;;;;;;;;;;;21.40;49.10;;;;;;1556326;75;706;-70
2024/04/08 03:17:35;;;;;;;;;;;21.40;49.10;;;;;;1564616;75;1159;-71
2024/04/08 03:19:37;;;;;;;;;;;21.40;49.20;;;;;;1564083;75;790;-69
2024/04/08 03:21:38;;;;;;;;;;;21.50;49.20;;;;;;1562833;75;792;-67
2024/04/08 03:23:40;;;;;;;;;;;21.40;49.20;;;;;;1561955;75;1588;-66
2024/04/08 03:25:42;;;;;;;;;;;21.40;49.20;;;;;;1558553;75;760;-67
2024/04/08 03:27:45;;;;;;;;;;;21.40;49.20;;;;;;1567259;76;1257;-71
2024/04/08 03:29:47;;;;;;;;;;;21.50;49.30;;;;;;1560826;74;1914;-72
2024/04/08 03:31:49;;;;;;;;;;;21.40;49.20;;;;;;1564335;75;546;-67
2024/04/08 03:33:53;;;;;;;;;;;21.40;49.20;;;;;;1561209;75;603;-69
2024/04/08 03:35:55;;;;;;;;;;;21.40;49.20;;;;;;1567866;75;1608;-68
2024/04/08 03:37:57;;;;;;;;;;;21.50;49.40;;;;;;1558330;75;1595;-67
2024/04/08 03:39:59;;;;;;;;;;;21.40;49.20;;;;;;1565205;76;749;-68
2024/04/08 03:42:01;;;;;;;;;;;21.40;49.30;;;;;;1566237;75;782;-68
2024/04/08 03:44:02;;;;;;;;;;;21.40;49.30;;;;;;1561470;75;683;-69
2024/04/08 03:46:04;;;;;;;;;;;21.40;49.30;;;;;;1566168;75;695;-70
2024/04/08 03:48:06;;;;;;;;;;;21.40;49.30;;;;;;1564381;75;1288;-70
2024/04/08 03:50:08;;;;;;;;;;;21.40;49.30;;;;;;1559132;75;1990;-68
2024/04/08 03:52:10;;;;;;;;;;;21.40;49.30;;;;;;1563157;75;1569;-68
2024/04/08 03:54:12;;;;;;;;;;;21.50;49.40;;;;;;1555942;75;684;-68
2024/04/08 03:56:14;;;;;;;;;;;21.40;49.30;;;;;;1554690;75;697;-70
2024/04/08 03:58:16;;;;;;;;;;;21.50;49.40;;;;;;1556862;75;1101;-67
2024/04/08 04:00:18;;;;;;;;;;;21.40;49.30;;;;;;1558475;75;737;-67
2024/04/08 04:02:20;;;;;;;;;;;21.40;49.30;;;;;;1567421;75;735;-71
2024/04/08 04:04:21;;;;;;;;;;;21.40;49.30;;;;;;1557594;75;794;-69
2024/04/08 04:06:23;;;;;;;;;;;21.40;49.30;;;;;;1561729;75;1578;-69
2024/04/08 04:08:26;;;;;;;;;;;21.40;49.30;;;;;;1552710;75;1107;-70
2024/04/08 04:10:28;;;;;;;;;;;21.50;49.40;;;;;;1565719;74;1905;-69
2024/04/08 04:12:29;;;;;;;;;;;21.40;49.40;;;;;;1562801;74;656;-70
2024/04/08 04:14:31;;;;;;;;;;;21.40;48.90;;;;;;1560774;75;755;-71
2024/04/08 04:16:33;;;;;;;;;;;21.40;49.00;;;;;;1561073;74;753;-72
2024/04/08 04:18:35;;;;;;;;;;;21.40;49.20;;;;;;1562056;75;1076;-72
2024/04/08 04:20:40;;;;;;;;;;;21.40;49.30;;;;;;1556534;74;1587;-74
2024/04/08 04:22:44;;;;;;;;;;;21.50;49.40;;;;;;1558125;76;873;-67
2024/04/08 04:24:46;;;;;;;;;;;21.40;49.20;;;;;;1566541;75;2256;-71
2024/04/08 04:26:48;;;;;;;;;;;21.60;49.40;;;;;;1565873;74;669;-70
2024/04/08 04:28:50;;;;;;;;;;;21.40;49.20;;;;;;1563722;74;1148;-67
2024/04/08 04:30:55;;;;;;;;;;;21.40;49.20;;;;;;1562636;74;1942;-72
2024/04/08 04:32:57;;;;;;;;;;;21.50;49.30;;;;;;1564078;74;689;-68
2024/04/08 04:34:59;;;;;;;;;;;21.40;49.20;;;;;;1560040;74;1591;-67
2024/04/08 04:37:01;;;;;;;;;;;21.40;49.20;;;;;;1558131;74;688;-69
2024/04/08 04:39:05;;;;;;;;;;;21.50;49.30;;;;;;1559525;74;1110;-71
2024/04/08 04:41:07;;;;;;;;;;;21.40;49.00;;;;;;1557996;74;634;-68
2024/04/08 04:43:09;;;;;;;;;;;21.50;49.20;;;;;;1558671;74;782;-70
2024/04/08 04:45:11;;;;;;;;;;;21.50;49.20;;;;;;1566265;74;650;-67
2024/04/08 04:47:13;;;;;;;;;;;21.50;49.20;;;;;;1565506;74;1136;-71
2024/04/08 04:49:15;;;;;;;;;;;21.40;49.00;;;;;;1563480;74;1604;-70
2024/04/08 04:51:17;;;;;;;;;;;21.40;49.00;;;;;;1567674;74;1973;-68
2024/04/08 04:53:19;;;;;;;;;;;21.40;49.00;;;;;;1564773;75;680;-68
2024/04/08 04:55:21;;;;;;;;;;;21.50;49.20;;;;;;1561249;75;620;-68
2024/04/08 04:57:23;;;;;;;;;;;21.50;49.10;;;;;;1564071;75;1137;-69
2024/04/08 04:59:25;;;;;;;;;;;21.40;48.90;;;;;;1561807;74;727;-68
2024/04/08 05:01:27;;;;;;;;;;;21.40;48.90;;;;;;1566002;75;1337;-66
2024/04/08 05:03:28;;;;;;;;;;;21.40;48.90;;;;;;1563719;75;698;-75
2024/04/08 05:05:30;;;;;;;;;;;21.40;48.90;;;;;;1560026;75;704;-69
2024/04/08 05:07:32;;;;;;;;;;;21.40;48.90;;;;;;1565543;75;1069;-73
2024/04/08 05:09:34;;;;;;;;;;;21.40;48.10;;;;;;1565666;74;719;-69
2024/04/08 05:11:36;;;;;;;;;;;21.40;47.90;;;;;;1563106;75;1935;-69
2024/04/08 05:13:38;;;;;;;;;;;21.40;47.50;;;;;;1562196;75;806;-71
2024/04/08 05:15:40;;;;;;;;;;;21.40;47.10;;;;;;1567292;74;1568;-73
2024/04/08 05:17:42;;;;;;;;;;;21.30;46.80;;;;;;1564394;74;1137;-71
2024/04/08 05:19:44;;;;;;;;;;;21.30;46.40;;;;;;1559223;74;729;-72
2024/04/08 05:21:45;;;;;;;;;;;21.30;46.20;;;;;;1565345;74;786;-73
2024/04/08 05:23:48;;;;;;;;;;;21.30;46.00;;;;;;1565379;74;717;-75
2024/04/08 05:25:50;;;;;;;;;;;21.20;45.70;;;;;;1563972;74;785;-72
2024/04/08 05:27:52;;;;;;;;;;;21.20;45.30;;;;;;1563470;74;1173;-72
2024/04/08 05:29:54;;;;;;;;;;;21.20;45.40;;;;;;1564249;74;1533;-69
2024/04/08 05:31:55;;;;;;;;;;;21.10;45.20;;;;;;1563260;74;1918;-73
2024/04/08 05:33:57;;;;;;;;;;;21.10;44.70;;;;;;1567909;74;855;-70
2024/04/08 05:35:59;;;;;;;;;;;21.10;44.90;;;;;;1567248;74;721;-68
2024/04/08 05:38:01;;;;;;;;;;;21.10;45.10;;;;;;1566995;75;1105;-67
2024/04/08 05:40:03;;;;;;;;;;;21.10;45.10;;;;;;1566111;75;805;-67
2024/04/08 05:42:05;;;;;;;;;;;21.10;45.20;;;;;;1560932;75;832;-71
2024/04/08 05:44:07;;;;;;;;;;;21.10;44.90;;;;;;1567083;74;1373;-71
2024/04/08 05:46:09;;;;;;;;;;;21.10;44.40;;;;;;1561231;75;684;-71
2024/04/08 05:48:11;;;;;;;;;;;21.10;44.40;;;;;;1567119;75;1164;-73
2024/04/08 05:50:13;;;;;;;;;;;21.00;44.40;;;;;;1555108;75;1935;-66
2024/04/08 05:52:15;;;;;;;;;;;21.10;44.50;;;;;;1563639;76;716;-68
2024/04/08 05:54:16;;;;;;;;;;;21.00;44.40;;;;;;1562439;75;816;-69
2024/04/08 05:56:19;;;;;;;;;;;21.00;44.20;;;;;;1566784;76;809;-69
2024/04/08 05:58:21;;;;;;;;;;;21.10;44.10;;;;;;1558678;75;1633;-71
2024/04/08 06:00:23;;;;;;;;;;;21.00;44.10;;;;;;1559701;75;741;-70
2024/04/08 06:02:25;;;;;;;;;;;21.00;44.10;;;;;;1565298;75;756;-69
2024/04/08 06:04:27;;;;;;;;;;;21.00;44.10;;;;;;1566426;75;707;-68
2024/04/08 06:06:29;;;;;;;;;;;21.00;44.20;;;;;;1563092;75;679;-70
2024/04/08 06:08:31;;;;;;;;;;;21.00;44.20;;;;;;1554650;74;1120;-69
2024/04/08 06:10:36;;;;;;;;;;;21.00;44.20;;;;;;1564715;74;1926;-69
2024/04/08 06:12:36;;;;;;;;;;;21.00;44.20;;;;;;1559843;74;1742;-76
2024/04/08 06:14:38;;;;;;;;;;;21.10;44.10;;;;;;1557816;75;699;-69
2024/04/08 06:16:40;;;;;;;;;;;21.00;44.00;;;;;;1552679;75;674;-70
2024/04/08 06:18:42;;;;;;;;;;;21.00;44.10;;;;;;1564026;74;1122;-68
2024/04/08 06:20:44;;;;;;;;;;;21.00;44.20;;;;;;1566534;75;675;-71
2024/04/08 06:22:46;;;;;;;;;;;21.00;44.00;;;;;;1562617;76;725;-75
2024/04/08 06:24:47;;;;;;;;;;;21.00;44.20;;;;;;1560359;75;679;-70
2024/04/08 06:26:49;;;;;;;;;;;21.00;44.20;;;;;;1560021;75;1570;-70
2024/04/08 06:28:51;;;;;;;;;;;21.00;44.20;;;;;;1552528;75;1168;-71
2024/04/08 06:30:53;;;;;;;;;;;21.00;44.10;;;;;;1559133;75;1946;-68
2024/04/08 06:32:57;;;;;;;;;;;21.00;44.20;;;;;;1558804;75;804;-71
2024/04/08 06:34:59;;;;;;;;;;;21.00;44.10;;;;;;1566514;75;683;-68
2024/04/08 06:37:01;;;;;;;;;;;21.00;44.20;;;;;;1568792;75;624;-72
2024/04/08 06:39:03;;;;;;;;;;;21.00;43.90;;;;;;1565812;76;1087;-76
2024/04/08 06:41:05;;;;;;;;;;;21.00;43.60;;;;;;1565821;76;1556;-71
2024/04/08 06:43:07;;;;;;;;;;;21.00;43.30;;;;;;1552330;74;716;-73
2024/04/08 06:45:09;;;;;;;;;;;21.00;43.20;;;;;;1552821;74;765;-69
2024/04/08 06:47:11;;;;;;;;;;;21.00;43.30;;;;;;1564142;74;729;-76
2024/04/08 06:49:13;;;;;;;;;;;21.00;43.20;;;;;;1561680;74;754;-72
2024/04/08 06:51:14;;;;;;;;;;;21.00;43.10;;;;;;1563072;74;1917;-70
2024/04/08 06:53:17;;;;;;;;;;;21.00;43.00;;;;;;1563793;74;801;-70
2024/04/08 06:55:19;;;;;;;;;;;21.00;42.60;;;;;;1565384;74;1608;-67
2024/04/08 06:57:21;;;;;;;;;;;20.90;42.50;;;;;;1568663;74;1139;-71
2024/04/08 06:59:24;;;;;;;;;;;20.90;42.60;;;;;;1564420;74;709;-68
2024/04/08 07:01:28;;;;;;;;;;;20.90;42.30;;;;;;1564346;74;758;-73
2024/04/08 07:03:30;;;;;;;;;;;21.00;42.30;;;;;;1565498;74;692;-70
2024/04/08 07:05:32;;;;;;;;;;;20.90;42.50;;;;;;1569946;74;889;-70
2024/04/08 07:07:34;;;;;;;;;;;20.90;42.50;;;;;;1565675;74;1149;-68
2024/04/08 07:09:35;;;;;;;;;;;20.90;42.60;;;;;;1563198;74;1355;-69
2024/04/08 07:11:37;;;;;;;;;;;20.90;42.60;;;;;;1563991;74;1950;-71
2024/04/08 07:13:40;;;;;;;;;;;20.90;42.60;;;;;;1564741;74;780;-71
2024/04/08 07:15:41;;;;;;;;;;;20.90;42.70;;;;;;1565672;74;753;-71
2024/04/08 07:17:43;;;;;;;;;;;20.90;42.70;;;;;;1566141;74;1152;-74
2024/04/08 07:19:45;;;;;;;;;;;20.90;42.80;;;;;;1567582;74;804;-69
2024/04/08 07:21:47;;;;;;;;;;;20.90;42.70;;;;;;1557514;74;670;-70
2024/04/08 07:23:51;;;;;;;;;;;20.90;42.70;;;;;;1564151;74;1515;-69
2024/04/08 07:25:52;;;;;;;;;;;20.90;42.60;;;;;;1565953;74;1729;-71
2024/04/08 07:27:54;;;;;;;;;;;20.90;42.90;;;;;;1563057;74;1145;-70
2024/04/08 07:29:56;;;;;;;;;;;20.90;43.00;;;;;;1576735;75;816;-72
2024/04/08 07:31:58;;;;;;;;;;;21.00;43.10;;;;;;1564825;74;1920;-70
2024/04/08 07:34:00;;;;;;;;;;;20.90;43.00;;;;;;1562443;74;658;-70
2024/04/08 07:36:02;;;;;;;;;;;20.90;42.80;;;;;;1561708;74;641;-66
2024/04/08 07:38:04;;;;;;;;;;;20.90;42.60;;;;;;1561068;74;1681;-70
2024/04/08 07:40:08;;;;;;;;;;;21.00;42.50;;;;;;1560284;74;676;-72
2024/04/08 07:42:10;;;;;;;;;;;20.90;42.30;;;;;;1559785;74;681;-68
2024/04/08 07:44:12;;;;;;;;;;;20.90;42.30;;;;;;1566393;74;638;-71
2024/04/08 07:46:14;;;;;;;;;;;20.90;42.40;;;;;;1567781;74;747;-72
2024/04/08 07:48:19;;;;;;;;;;;20.90;42.20;;;;;;1561425;74;1172;-68
2024/04/08 07:50:19;;;;;;;;;;;20.90;42.20;;;;;;1566899;74;1695;-67
2024/04/08 07:52:21;;;;;;;;;;;20.90;42.50;;;;;;1563380;74;1942;-69
2024/04/08 07:54:23;;;;;;;;;;;20.90;42.60;;;;;;1560568;74;778;-69
2024/04/08 07:56:25;;;;;;;;;;;20.90;42.60;;;;;;1561154;74;622;-68
2024/04/08 07:58:29;;;;;;;;;;;20.90;42.80;;;;;;1562666;74;1141;-70
2024/04/08 08:00:30;;;;;;;;;;;20.90;42.90;;;;;;1563865;74;1654;-72
2024/04/08 08:02:32;;;;;;;;;;;21.00;42.90;;;;;;1565764;74;778;-70
2024/04/08 08:04:34;;;;;;;;;;;20.90;43.00;;;;;;1566528;74;1549;-70
2024/04/08 08:06:36;;;;;;;;;;;20.90;43.00;;;;;;1565812;74;749;-68
2024/04/08 08:08:38;;;;;;;;;;;21.00;43.00;;;;;;1566972;74;1229;-69
2024/04/08 08:10:40;;;;;;;;;;;21.00;43.10;;;;;;1565117;74;682;-68
2024/04/08 08:12:42;;;;;;;;;;;21.00;43.10;;;;;;1563063;74;1939;-69
2024/04/08 08:14:46;;;;;;;;;;;21.00;43.10;;;;;;1559418;74;597;-71
2024/04/08 08:16:48;;;;;;;;;;;21.10;43.20;;;;;;1561055;74;777;-73
2024/04/08 08:18:50;;;;;;;;;;;21.00;43.20;;;;;;1567827;74;1430;-74
2024/04/08 08:20:52;;;;;;;;;;;21.10;43.40;;;;;;1560160;74;804;-72
2024/04/08 08:22:56;;;;;;;;;;;21.10;43.50;;;;;;1565420;74;715;-70
2024/04/08 08:24:57;;;;;;;;;;;21.00;43.40;;;;;;1565944;74;1472;-67
2024/04/08 08:26:59;;;;;;;;;;;21.10;43.60;;;;;;1568034;74;713;-69
2024/04/08 08:29:01;;;;;;;;;;;21.10;43.60;;;;;;1567322;74;1133;-69
2024/04/08 08:31:03;;;;;;;;;;;21.10;43.70;;;;;;1566274;74;1942;-74
2024/04/08 08:33:05;;;;;;;;;;;21.10;43.70;;;;;;1566625;74;1542;-69
2024/04/08 08:35:06;;;;;;;;;;;21.10;43.70;;;;;;1566932;74;806;-69
2024/04/08 08:37:09;;;;;;;;;;;21.10;43.80;;;;;;1567265;74;920;-68
2024/04/08 08:39:11;;;;;;;;;;;21.10;43.90;;;;;;1565327;74;1192;-69
2024/04/08 08:41:12;;;;;;;;;;;21.10;43.80;;;;;;1564600;74;811;-68
2024/04/08 08:43:14;;;;;;;;;;;21.20;43.90;;;;;;1578101;75;695;-68
2024/04/08 08:45:16;;;;;;;;;;;21.20;43.90;;;;;;1540704;76;897;-70
2024/04/08 08:47:19;;;;;;;;;;;21.20;43.90;;;;;;1563513;74;1309;-71
2024/04/08 08:49:21;;;;;;;;;;;21.20;44.00;;;;;;1555554;74;739;-70
2024/04/08 08:51:23;;;;;;;;;;;21.20;44.00;;;;;;1567879;74;1924;-75
2024/04/08 08:53:25;;;;;;;;;;;21.20;44.10;;;;;;1559472;74;827;-71
2024/04/08 08:55:27;;;;;;;;;;;21.20;44.20;;;;;;1569091;74;700;-67
2024/04/08 08:57:29;;;;;;;;;;;21.20;44.20;;;;;;1526726;76;1115;-69
2024/04/08 08:59:31;;;;;;;;;;;21.20;44.20;;;;;;1556579;74;623;-73
2024/04/08 09:01:33;;;;;;;;;;;21.20;44.20;;;;;;1563933;74;1559;-69
2024/04/08 09:03:35;;;;;;;;;;;21.20;44.40;;;;;;1567917;74;685;-72
2024/04/08 09:05:37;;;;;;;;;;;21.20;44.40;;;;;;1556229;74;694;-68
2024/04/08 09:07:39;;;;;;;;;;;21.30;44.50;;;;;;1561002;74;1143;-69
2024/04/08 09:09:41;;;;;;;;;;;21.30;44.60;;;;;;1566826;74;609;-69
2024/04/08 09:11:46;;;;;;;;;;;21.30;44.60;;;;;;1566745;74;1912;-69
2024/04/08 09:13:50;;;;;;;;;;;21.30;44.60;;;;;;1533441;76;705;-74
2024/04/08 09:15:52;;;;;;;;;;;21.30;44.60;;;;;;1528798;76;1587;-73
2024/04/08 09:17:55;;;;;;;;;;;21.30;44.70;;;;;;1535894;76;1112;-70
2024/04/08 09:19:57;;;;;;;;;;;21.30;44.70;;;;;;1543850;75;1594;-70
2024/04/08 09:21:59;;;;;;;;;;;21.30;44.70;;;;;;1579065;74;678;-71
2024/04/08 09:24:02;;;;;;;;;;;21.30;44.70;;;;;;1546309;76;726;-69
2024/04/08 09:26:04;;;;;;;;;;;21.30;44.70;;;;;;1549094;74;578;-70
2024/04/08 09:28:07;;;;;;;;;;;21.30;44.70;;;;;;1555060;74;1155;-68
2024/04/08 09:30:10;;;;;;;;;;;21.30;44.70;;;;;;1568697;74;1557;-68
2024/04/08 09:32:11;;;;;;;;;;;21.30;44.70;;;;;;1550950;76;1968;-70
2024/04/08 09:34:14;;;;;;;;;;;21.40;44.70;;;;;;1531489;76;1114;-69
2024/04/08 09:36:17;;;;;;;;;;;21.40;44.70;;;;;;1536958;75;1376;-68
2024/04/08 09:38:19;;;;;;;;;;;21.30;44.70;;;;;;1524426;76;1331;-69
2024/04/08 09:40:21;;;;;;;;;;;21.30;44.70;;;;;;1524172;75;1361;-69
2024/04/08 09:42:24;;;;;;;;;;;21.40;44.70;;;;;;1533119;76;1282;-70
2024/04/08 09:44:30;;;;;;;;;;;21.40;44.70;;;;;;1539460;76;1683;-68
2024/04/08 09:46:29;;;;;;;;;;;21.40;44.70;;;;;;1553237;75;1687;-68
2024/04/08 09:48:32;;;;;;;;;;;21.40;44.70;;;;;;1563811;74;1342;-68
2024/04/08 09:50:35;;;;;;;;;;;21.40;44.80;;;;;;1569400;74;737;-70
2024/04/08 09:52:37;;;;;;;;;;;21.40;44.80;;;;;;1563258;74;1913;-68
2024/04/08 09:54:39;;;;;;;;;;;21.30;44.70;;;;;;1534285;76;795;-72
2024/04/08 09:56:41;;;;;;;;;;;21.30;44.80;;;;;;1561657;75;804;-70
2024/04/08 09:58:44;;;;;;;;;;;21.30;44.80;;;;;;1560728;75;1116;-69
2024/04/08 10:00:46;;;;;;;;;;;21.30;44.80;;;;;;1563028;75;1901;-68
2024/04/08 10:02:48;;;;;;;;;;;21.40;44.80;;;;;;1559488;74;697;-69
2024/04/08 10:04:50;;;;;;;;;;;21.30;44.70;;;;;;1561878;74;629;-68
2024/04/08 10:06:52;;;;;;;;;;;21.40;44.70;;;;;;1563658;74;679;-69
2024/04/08 10:08:54;;;;;;;;;;;21.40;44.70;;;;;;1564152;75;1144;-70
2024/04/08 10:10:56;;;;;;;;;;;21.30;44.80;;;;;;1566593;76;1280;-70
2024/04/08 10:12:59;;;;;;;;;;;21.40;44.70;;;;;;1563322;76;1966;-70
2024/04/08 10:15:11;;;;;;;;;;;21.40;44.70;;;;;;1555158;75;771;-68
2024/04/08 10:17:13;;;;;;;;;;;21.40;44.70;;;;;;1561131;75;1142;-66
2024/04/08 10:19:15;;;;;;;;;;;21.40;44.70;;;;;;1565098;75;1331;-68
2024/04/08 10:21:17;;;;;;;;;;;21.40;44.70;;;;;;1564030;74;749;-72
2024/04/08 10:23:20;;;;;;;;;;;21.40;44.60;;;;;;1558619;74;751;-73
2024/04/08 10:25:35;;;;;;;;;;;21.40;44.70;;;;;;1564250;74;1544;-71
2024/04/08 10:27:37;;;;;;;;;;;21.40;44.60;;;;;;1559497;74;1148;-76
2024/04/08 10:29:40;;;;;;;;;;;21.40;44.70;;;;;;1564980;74;782;-70
2024/04/08 10:31:42;;;;;;;;;;;21.40;44.70;;;;;;1563080;74;688;-69
2024/04/08 10:33:44;;;;;;;;;;;21.40;44.70;;;;;;1568768;74;1929;-71
2024/04/08 10:35:46;;;;;;;;;;;21.40;44.70;;;;;;1568834;74;715;-69
2024/04/08 10:37:48;;;;;;;;;;;21.50;44.90;;;;;;1564007;74;1180;-72
2024/04/08 10:39:57;;;;;;;;;;;21.50;44.90;;;;;;1555524;75;1346;-73
2024/04/08 10:42:01;;;;;;;;;;;21.40;44.80;;;;;;1548162;75;780;-73
2024/04/08 10:44:03;;;;;;;;;;;21.40;44.80;;;;;;1552104;75;1913;-75
2024/04/08 10:46:14;;;;;;;;;;;21.40;44.90;;;;;;1568618;74;709;-73
2024/04/08 10:48:16;;;;;;;;;;;21.40;44.90;;;;;;1566459;74;1147;-74
2024/04/08 10:50:18;;;;;;;;;;;21.40;44.80;;;;;;1566770;74;721;-71
2024/04/08 10:52:20;;;;;;;;;;;21.40;44.80;;;;;;1567323;74;1932;-68
2024/04/08 10:54:22;;;;;;;;;;;21.40;44.80;;;;;;1560364;74;1592;-69
2024/04/08 10:56:24;;;;;;;;;;;21.40;44.90;;;;;;1566755;74;791;-72
2024/04/08 10:58:26;;;;;;;;;;;21.40;44.90;;;;;;1560309;74;1151;-72
2024/04/08 11:00:27;;;;;;;;;;;21.40;44.90;;;;;;1561333;74;793;-72
2024/04/08 11:02:30;;;;;;;;;;;21.40;44.90;;;;;;1567437;74;739;-73
2024/04/08 11:04:32;;;;;;;;;;;21.40;44.90;;;;;;1564401;74;757;-71
2024/04/08 11:06:34;;;;;;;;;;;21.40;44.90;;;;;;1564275;74;788;-77
2024/04/08 11:08:37;;;;;;;;;;;21.40;44.90;;;;;;1566215;74;1589;-71
2024/04/08 11:10:39;;;;;;;;;;;21.40;44.90;;;;;;1562451;74;730;-72
2024/04/08 11:12:41;;;;;;;;;;;21.40;44.90;;;;;;1579158;75;1953;-69
2024/04/08 11:14:43;;;;;;;;;;;21.40;44.90;;;;;;1563271;74;711;-70
2024/04/08 11:16:45;;;;;;;;;;;21.50;45.10;;;;;;1567350;74;733;-73
2024/04/08 11:18:47;;;;;;;;;;;21.50;45.10;;;;;;1563912;74;1129;-75
2024/04/08 11:20:49;;;;;;;;;;;21.50;45.10;;;;;;1557646;74;670;-72
2024/04/08 11:22:51;;;;;;;;;;;21.50;45.20;;;;;;1558103;74;1581;-72
2024/04/08 11:24:59;;;;;;;;;;;21.50;45.10;;;;;;1563977;74;776;-72
2024/04/08 11:26:57;;;;;;;;;;;21.40;45.00;;;;;;1561146;74;1665;-69
2024/04/08 11:29:01;;;;;;;;;;;21.50;45.10;;;;;;1562023;74;1074;-70
2024/04/08 11:31:04;;;;;;;;;;;21.40;45.00;;;;;;1562986;74;725;-71
2024/04/08 11:33:06;;;;;;;;;;;21.40;45.00;;;;;;1564211;74;1911;-71
2024/04/08 11:35:08;;;;;;;;;;;21.50;45.10;;;;;;1567667;74;694;-73
2024/04/08 11:37:10;;;;;;;;;;;21.40;45.00;;;;;;1559635;74;664;-70
2024/04/08 11:39:12;;;;;;;;;;;21.40;45.00;;;;;;1562149;74;1173;-70
2024/04/08 11:41:14;;;;;;;;;;;21.40;45.00;;;;;;1564842;74;686;-72
2024/04/08 11:43:16;;;;;;;;;;;21.40;45.00;;;;;;1552348;74;798;-69
2024/04/08 11:45:18;;;;;;;;;;;21.40;45.00;;;;;;1566217;74;729;-71
2024/04/08 11:47:20;;;;;;;;;;;21.40;45.00;;;;;;1563254;74;1109;-70
2024/04/08 11:49:22;;;;;;;;;;;21.40;45.00;;;;;;1567137;74;1611;-71
2024/04/08 11:51:24;;;;;;;;;;;21.50;45.20;;;;;;1556229;74;750;-72
2024/04/08 11:53:26;;;;;;;;;;;21.40;45.00;;;;;;1563928;74;1940;-71
2024/04/08 11:55:28;;;;;;;;;;;21.40;45.00;;;;;;1564633;74;682;-72
2024/04/08 11:57:30;;;;;;;;;;;21.50;45.20;;;;;;1566551;74;1153;-70
2024/04/08 11:59:32;;;;;;;;;;;21.50;45.20;;;;;;1563916;74;631;-69
2024/04/08 12:01:33;;;;;;;;;;;21.50;45.20;;;;;;1559648;74;710;-74
2024/04/08 12:03:35;;;;;;;;;;;21.50;45.20;;;;;;1562704;74;1564;-71
2024/04/08 12:05:37;;;;;;;;;;;21.50;45.20;;;;;;1565846;74;686;-69
2024/04/08 12:07:39;;;;;;;;;;;21.40;45.10;;;;;;1548510;75;1168;-70